createdAt,value
2022-08-24T00:02:06.743Z,5.82
2022-08-24T00:04:33.900Z,5.28
2022-08-24T00:07:02.221Z,5.45
2022-08-24T00:09:30.280Z,5.70
2022-08-24T00:11:57.083Z,5.03
2022-08-24T00:14:24.113Z,4.35
2022-08-24T00:16:50.768Z,4.38
2022-08-24T00:19:17.580Z,4.97
2022-08-24T00:21:44.087Z,5.35
2022-08-24T00:24:11.120Z,5.32
2022-08-24T00:26:38.692Z,5.55
2022-08-24T00:29:07.573Z,5.75
2022-08-24T00:31:34.587Z,5.10
2022-08-24T00:34:01.272Z,5.63
2022-08-24T00:36:28.342Z,5.40
2022-08-24T00:38:54.865Z,5.80
2022-08-24T00:41:22.477Z,5.90
2022-08-24T00:43:58.631Z,5.55
2022-08-24T00:46:34.027Z,6.18
2022-08-24T00:49:23.984Z,5.60
2022-08-24T00:52:04.664Z,5.55
2022-08-24T00:54:36.600Z,5.32
2022-08-24T00:57:07.339Z,6.22
2022-08-24T00:59:43.127Z,6.05
2022-08-24T01:02:17.729Z,5.67
2022-08-24T01:04:52.516Z,5.35
2022-08-24T01:07:20.869Z,6.82
2022-08-24T01:09:47.426Z,5.50
2022-08-24T01:12:14.059Z,5.75
2022-08-24T01:14:40.654Z,5.47
2022-08-24T01:17:25.860Z,5.10
2022-08-24T01:19:57.126Z,5.50
2022-08-24T01:22:34.594Z,5.60
2022-08-24T01:25:01.488Z,5.90
2022-08-24T01:27:28.398Z,5.00
2022-08-24T01:29:55.875Z,5.25
2022-08-24T01:32:27.971Z,5.43
2022-08-24T01:34:56.226Z,5.53
2022-08-24T01:37:23.154Z,5.80
2022-08-24T01:39:52.006Z,5.50
2022-08-24T01:42:18.689Z,5.72
2022-08-24T01:44:46.071Z,5.47
2022-08-24T01:47:14.171Z,5.25
2022-08-24T01:49:43.966Z,5.80
2022-08-24T01:52:14.881Z,5.65
2022-08-24T01:54:43.461Z,5.40
2022-08-24T01:57:10.920Z,5.90
2022-08-24T01:59:42.763Z,5.57
2022-08-24T02:02:19.739Z,5.63
2022-08-24T02:04:46.260Z,5.28
2022-08-24T02:07:13.439Z,5.85
2022-08-24T02:09:41.229Z,5.80
2022-08-24T02:12:08.901Z,5.28
2022-08-24T02:14:35.907Z,5.25
2022-08-24T02:17:04.530Z,5.13
2022-08-24T02:19:31.632Z,5.82
2022-08-24T02:21:58.192Z,5.97
2022-08-24T02:24:24.678Z,6.00
2022-08-24T02:26:51.244Z,6.30
2022-08-24T02:29:17.745Z,5.93
2022-08-24T02:31:44.871Z,5.97
2022-08-24T02:34:11.413Z,5.72
2022-08-24T02:36:38.989Z,5.43
2022-08-24T02:39:07.445Z,5.45
2022-08-24T02:41:34.546Z,5.63
2022-08-24T02:44:01.099Z,6.00
2022-08-24T02:46:29.791Z,6.25
2022-08-24T02:49:10.688Z,6.40
2022-08-24T02:51:44.773Z,6.05
2022-08-24T02:54:13.355Z,6.63
2022-08-24T02:56:39.854Z,6.68
2022-08-24T02:59:06.670Z,5.97
2022-08-24T03:01:33.343Z,6.80
2022-08-24T03:03:59.956Z,6.72
2022-08-24T03:06:26.587Z,5.90
2022-08-24T03:08:56.296Z,6.35
2022-08-24T03:11:27.600Z,6.18
2022-08-24T03:13:55.484Z,6.03
2022-08-24T03:16:22.142Z,6.82
2022-08-24T03:18:48.855Z,6.03
2022-08-24T03:21:16.300Z,5.90
2022-08-24T03:23:43.000Z,5.85
2022-08-24T03:26:09.976Z,6.20
2022-08-24T03:28:36.635Z,6.70
2022-08-24T03:31:03.400Z,6.32
2022-08-24T03:33:30.262Z,6.78
2022-08-24T03:35:56.793Z,6.43
2022-08-24T03:38:23.512Z,6.68
2022-08-24T03:40:50.354Z,6.85
2022-08-24T03:43:35.740Z,5.93
2022-08-24T03:46:05.120Z,6.07
2022-08-24T03:48:31.706Z,5.85
2022-08-24T03:50:58.335Z,6.93
2022-08-24T03:53:25.264Z,5.97
2022-08-24T03:55:52.288Z,6.72
2022-08-24T03:58:18.845Z,6.50
2022-08-24T04:00:45.589Z,5.97
2022-08-24T04:03:12.749Z,7.00
2022-08-24T04:05:40.348Z,6.47
2022-08-24T04:08:06.862Z,6.20
2022-08-24T04:10:33.999Z,6.75
2022-08-24T04:13:01.596Z,6.78
2022-08-24T04:15:29.956Z,7.22
2022-08-24T04:17:56.458Z,6.80
2022-08-24T04:20:24.092Z,6.68
2022-08-24T04:22:51.449Z,6.70
2022-08-24T04:25:25.837Z,6.65
2022-08-24T04:27:52.373Z,6.60
2022-08-24T04:30:21.789Z,7.05
2022-08-24T04:32:48.565Z,6.70
2022-08-24T04:35:15.064Z,6.70
2022-08-24T04:37:41.658Z,7.28
2022-08-24T04:40:09.071Z,7.47
2022-08-24T04:42:37.340Z,6.70
2022-08-24T04:45:04.454Z,6.57
2022-08-24T04:47:30.968Z,7.20
2022-08-24T04:49:57.458Z,8.18
2022-08-24T04:52:24.229Z,7.07
2022-08-24T04:54:50.700Z,7.40
2022-08-24T04:57:18.366Z,6.95
2022-08-24T04:59:45.330Z,7.05
2022-08-24T05:02:11.894Z,7.43
2022-08-24T05:04:38.532Z,7.35
2022-08-24T05:07:05.518Z,7.57
2022-08-24T05:09:32.049Z,6.97
2022-08-24T05:11:58.546Z,7.45
2022-08-24T05:14:28.646Z,7.63
2022-08-24T05:16:56.049Z,7.07
2022-08-24T05:19:23.963Z,7.25
2022-08-24T05:21:50.698Z,8.23
2022-08-24T05:24:18.295Z,7.38
2022-08-24T05:26:45.567Z,6.50
2022-08-24T05:29:12.226Z,6.80
2022-08-24T05:31:38.790Z,7.10
2022-08-24T05:34:05.580Z,7.85
2022-08-24T05:36:35.014Z,7.38
2022-08-24T05:39:06.974Z,6.80
2022-08-24T05:41:37.821Z,7.68
2022-08-24T05:44:06.654Z,7.88
2022-08-24T05:46:33.485Z,7.55
2022-08-24T05:49:00.499Z,8.00
2022-08-24T05:51:28.046Z,8.45
2022-08-24T05:53:54.701Z,8.00
2022-08-24T05:56:21.275Z,8.43
2022-08-24T05:58:48.606Z,7.78
2022-08-24T06:01:21.113Z,7.13
2022-08-24T06:03:49.215Z,7.03
2022-08-24T06:06:16.735Z,8.10
2022-08-24T06:08:46.277Z,7.32
2022-08-24T06:11:20.837Z,8.40
2022-08-24T06:13:47.803Z,8.43
2022-08-24T06:16:22.106Z,8.35
2022-08-24T06:18:50.706Z,8.57
2022-08-24T06:21:20.887Z,8.65
2022-08-24T06:23:48.559Z,8.55
2022-08-24T06:26:34.189Z,8.73
2022-08-24T06:31:27.672Z,8.60
2022-08-24T06:33:55.108Z,8.95
2022-08-24T06:36:22.717Z,8.93
2022-08-24T06:38:49.913Z,9.25
2022-08-24T06:41:17.233Z,9.55
2022-08-24T06:43:44.163Z,8.95
2022-08-24T06:46:11.034Z,10.45
2022-08-24T06:48:37.609Z,10.20
2022-08-24T06:51:09.877Z,11.18
2022-08-24T06:53:36.557Z,11.18
2022-08-24T06:56:04.542Z,11.60
2022-08-24T06:58:32.394Z,12.02
2022-08-24T07:01:07.396Z,11.00
2022-08-24T07:03:33.891Z,10.77
2022-08-24T07:06:02.664Z,9.85
2022-08-24T07:08:29.645Z,9.77
2022-08-24T07:10:56.123Z,9.80
2022-08-24T07:13:22.664Z,10.02
2022-08-24T07:15:51.785Z,8.85
2022-08-24T07:18:19.878Z,9.48
2022-08-24T07:20:47.607Z,9.93
2022-08-24T07:23:14.914Z,8.98
2022-08-24T07:25:44.886Z,9.50
2022-08-24T07:28:15.273Z,9.95
2022-08-24T07:30:42.688Z,9.07
2022-08-24T07:33:09.578Z,8.95
2022-08-24T07:35:37.527Z,8.30
2022-08-24T07:38:06.082Z,9.18
2022-08-24T07:40:55.886Z,7.70
2022-08-24T07:43:21.298Z,7.32
2022-08-24T07:45:49.568Z,7.70
2022-08-24T07:48:16.135Z,7.88
2022-08-24T07:50:42.780Z,7.50
2022-08-24T07:53:13.871Z,6.60
2022-08-24T07:55:52.043Z,6.82
2022-08-24T07:58:18.855Z,6.75
2022-08-24T08:00:49.434Z,6.50
2022-08-24T08:03:16.075Z,5.80
2022-08-24T08:05:43.106Z,6.45
2022-08-24T08:08:09.628Z,6.07
2022-08-24T08:10:36.265Z,6.60
2022-08-24T08:13:06.392Z,6.10
2022-08-24T08:15:33.151Z,6.88
2022-08-24T08:17:59.692Z,6.22
2022-08-24T08:20:26.174Z,6.35
2022-08-24T08:23:11.553Z,6.50
2022-08-24T08:25:38.381Z,6.25
2022-08-24T08:28:18.509Z,6.63
2022-08-24T08:30:53.737Z,6.30
2022-08-24T08:33:20.805Z,6.88
2022-08-24T08:35:49.130Z,5.25
2022-08-24T08:38:15.736Z,5.28
2022-08-24T08:40:45.301Z,5.00
2022-08-24T08:43:43.042Z,5.18
2022-08-24T08:46:15.499Z,5.47
2022-08-24T08:49:15.311Z,4.82
2022-08-24T08:51:58.590Z,5.57
2022-08-24T08:54:44.361Z,4.78
2022-08-24T08:57:34.008Z,4.85
2022-08-24T09:00:22.330Z,4.65
2022-08-24T09:03:17.436Z,4.00
2022-08-24T09:06:05.985Z,3.78
2022-08-24T09:08:57.306Z,3.83
2022-08-24T09:11:50.449Z,4.30
2022-08-24T09:14:45.860Z,3.72
2022-08-24T09:17:21.040Z,4.38
2022-08-24T09:20:09.073Z,3.85
2022-08-24T09:22:43.410Z,4.43
2022-08-24T09:25:38.841Z,3.28
2022-08-24T09:28:34.417Z,2.88
2022-08-24T09:31:38.605Z,3.40
2022-08-24T09:34:25.008Z,3.40
2022-08-24T09:36:51.455Z,3.13
2022-08-24T09:39:55.456Z,3.85
2022-08-24T09:42:47.108Z,3.20
2022-08-24T09:45:22.592Z,2.75
2022-08-24T09:48:41.954Z,3.05
2022-08-24T09:51:28.640Z,2.70
2022-08-24T09:54:04.165Z,2.90
2022-08-24T09:57:11.686Z,3.55
2022-08-24T09:59:47.703Z,3.55
2022-08-24T10:02:32.661Z,2.83
2022-08-24T10:04:59.149Z,2.72
2022-08-24T10:07:49.000Z,2.92
2022-08-24T10:10:34.664Z,2.75
2022-08-24T10:13:10.290Z,3.63
2022-08-24T10:16:13.843Z,2.85
2022-08-24T10:18:54.767Z,2.30
2022-08-24T10:21:36.894Z,1.92
2022-08-24T10:24:21.689Z,1.80
2022-08-24T10:27:13.687Z,2.45
2022-08-24T10:30:04.378Z,2.03
2022-08-24T10:32:52.075Z,2.00
2022-08-24T10:35:56.574Z,2.20
2022-08-24T10:38:50.554Z,2.40
2022-08-24T10:41:54.686Z,2.38
2022-08-24T10:44:46.121Z,2.30
2022-08-24T10:47:21.370Z,2.60
2022-08-24T10:50:12.757Z,2.60
2022-08-24T10:53:05.282Z,2.53
2022-08-24T10:55:34.591Z,2.38
2022-08-24T10:58:13.227Z,2.40
2022-08-24T11:00:40.285Z,2.20
2022-08-24T11:03:21.438Z,2.60
2022-08-24T11:05:56.996Z,2.30
2022-08-24T11:08:33.453Z,2.33
2022-08-24T11:11:25.122Z,2.60
2022-08-24T11:14:06.428Z,2.83
2022-08-24T11:16:44.828Z,2.95
2022-08-24T11:19:14.405Z,2.20
2022-08-24T11:21:50.868Z,2.55
2022-08-24T11:24:24.335Z,2.10
2022-08-24T11:26:56.251Z,2.25
2022-08-24T11:29:30.623Z,2.50
2022-08-24T11:31:58.837Z,2.22
2022-08-24T11:34:37.748Z,2.47
2022-08-24T11:37:05.156Z,2.72
2022-08-24T11:39:37.135Z,2.50
2022-08-24T11:42:03.595Z,2.67
2022-08-24T11:44:41.774Z,2.90
2022-08-24T11:47:24.082Z,2.90
2022-08-24T11:50:21.784Z,2.45
2022-08-24T11:53:03.598Z,2.45
2022-08-24T11:55:57.492Z,2.88
2022-08-24T11:58:44.946Z,2.60
2022-08-24T12:01:23.333Z,2.80
2022-08-24T12:04:00.168Z,2.83
2022-08-24T12:06:45.889Z,2.30
2022-08-24T12:09:22.122Z,2.33
2022-08-24T12:12:00.278Z,2.50
2022-08-24T12:14:44.678Z,2.60
2022-08-24T12:17:18.792Z,2.20
2022-08-24T12:20:21.179Z,2.45
2022-08-24T12:22:49.429Z,2.40
2022-08-24T12:25:36.056Z,2.40
2022-08-24T12:28:04.800Z,2.25
2022-08-24T12:30:31.714Z,2.40
2022-08-24T12:33:06.838Z,2.70
2022-08-24T12:35:54.045Z,3.22
2022-08-24T12:38:26.974Z,2.20
2022-08-24T12:40:58.595Z,2.67
2022-08-24T12:43:48.896Z,2.53
2022-08-24T12:46:20.627Z,2.40
2022-08-24T12:48:57.186Z,2.53
2022-08-24T12:52:14.785Z,2.70
2022-08-24T12:55:14.319Z,1.88
2022-08-24T12:57:54.559Z,2.17
2022-08-24T13:00:44.090Z,2.83
2022-08-24T13:03:38.441Z,2.63
2022-08-24T13:06:31.746Z,3.17
2022-08-24T13:09:30.136Z,2.75
2022-08-24T13:12:00.555Z,3.45
2022-08-24T13:14:29.747Z,2.40
2022-08-24T13:16:58.949Z,2.72
2022-08-24T13:19:28.501Z,2.50
2022-08-24T13:22:12.761Z,3.08
2022-08-24T13:24:39.616Z,2.45
2022-08-24T13:27:12.211Z,2.35
2022-08-24T13:29:42.820Z,2.38
2022-08-24T13:32:20.931Z,2.88
2022-08-24T13:34:49.293Z,2.40
2022-08-24T13:37:24.619Z,2.83
2022-08-24T13:40:19.465Z,2.58
2022-08-24T13:43:21.941Z,2.65
2022-08-24T13:46:13.254Z,2.95
2022-08-24T13:48:55.896Z,2.90
2022-08-24T13:51:25.412Z,2.40
2022-08-24T13:54:05.727Z,2.90
2022-08-24T13:56:35.036Z,2.55
2022-08-24T13:59:35.215Z,2.60
2022-08-24T14:02:16.080Z,2.75
2022-08-24T14:04:49.149Z,2.72
2022-08-24T14:07:24.318Z,2.97
2022-08-24T14:09:50.721Z,2.55
2022-08-24T14:12:38.928Z,2.33
2022-08-24T14:16:11.636Z,3.25
2022-08-24T14:18:56.143Z,2.63
2022-08-24T14:21:35.487Z,2.90
2022-08-24T14:24:11.705Z,3.00
2022-08-24T14:26:38.641Z,3.25
2022-08-24T14:29:20.360Z,3.08
2022-08-24T14:32:00.237Z,2.70
2022-08-24T14:35:19.503Z,3.10
2022-08-24T14:38:01.609Z,3.25
2022-08-24T14:40:42.780Z,2.60
2022-08-24T14:43:15.367Z,2.95
2022-08-24T14:46:29.134Z,3.72
2022-08-24T14:49:16.663Z,4.10
2022-08-24T14:52:10.919Z,3.10
2022-08-24T14:55:03.554Z,2.53
2022-08-24T14:57:49.962Z,3.15
2022-08-24T15:00:24.448Z,2.80
2022-08-24T15:05:32.711Z,2.83
2022-08-24T15:08:18.169Z,3.15
2022-08-24T15:10:58.972Z,2.80
2022-08-24T15:13:28.132Z,2.65
2022-08-24T15:16:05.000Z,2.60
2022-08-24T15:18:50.746Z,3.00
2022-08-24T15:21:26.413Z,3.05
2022-08-24T15:24:01.353Z,3.22
2022-08-24T15:27:03.673Z,3.17
2022-08-24T15:29:32.891Z,3.05
2022-08-24T15:32:12.172Z,2.80
2022-08-24T15:34:52.982Z,3.40
2022-08-24T15:37:47.802Z,3.10
2022-08-24T15:40:29.628Z,3.20
2022-08-24T15:43:03.426Z,3.28
2022-08-24T15:45:31.684Z,2.80
2022-08-24T15:48:01.099Z,3.22
2022-08-24T15:50:32.602Z,3.17
2022-08-24T15:53:08.455Z,3.50
2022-08-24T15:55:38.756Z,2.80
2022-08-24T15:58:18.456Z,2.92
2022-08-24T16:01:11.377Z,3.40
2022-08-24T16:03:49.859Z,2.67
2022-08-24T16:06:18.276Z,3.42
2022-08-24T16:08:59.077Z,3.25
2022-08-24T16:11:34.256Z,3.22
2022-08-24T16:14:03.122Z,3.40
2022-08-24T16:16:35.158Z,3.63
2022-08-24T16:19:08.388Z,3.42
2022-08-24T16:21:51.245Z,3.90
2022-08-24T16:24:21.088Z,3.10
2022-08-24T16:26:47.626Z,3.15
2022-08-24T16:29:38.819Z,3.20
2022-08-24T16:32:30.094Z,3.33
2022-08-24T16:35:08.519Z,3.13
2022-08-24T16:37:35.441Z,3.55
2022-08-24T16:40:02.046Z,3.20
2022-08-24T16:42:30.408Z,3.20
2022-08-24T16:44:58.877Z,3.13
2022-08-24T16:47:26.753Z,3.35
2022-08-24T16:49:53.316Z,3.15
2022-08-24T16:52:20.836Z,3.88
2022-08-24T16:54:48.156Z,3.13
2022-08-24T16:57:19.027Z,3.17
2022-08-24T16:59:48.219Z,3.22
2022-08-24T17:02:17.017Z,3.13
2022-08-24T17:04:43.793Z,3.40
2022-08-24T17:07:13.565Z,3.60
2022-08-24T17:09:42.734Z,3.13
2022-08-24T17:12:09.582Z,3.33
2022-08-24T17:14:38.576Z,3.25
2022-08-24T17:17:11.708Z,3.65
2022-08-24T17:19:39.307Z,3.25
2022-08-24T17:22:15.602Z,3.53
2022-08-24T17:24:43.291Z,3.30
2022-08-24T17:27:10.016Z,3.33
2022-08-24T17:29:36.587Z,3.47
2022-08-24T17:32:03.486Z,3.45
2022-08-24T17:34:30.126Z,3.25
2022-08-24T17:36:57.321Z,3.38
2022-08-24T17:39:24.484Z,3.40
2022-08-24T17:41:52.665Z,3.40
2022-08-24T17:44:25.799Z,3.63
2022-08-24T17:46:57.502Z,3.08
2022-08-24T17:49:24.366Z,3.50
2022-08-24T17:51:50.941Z,3.65
2022-08-24T17:54:18.188Z,3.17
2022-08-24T17:56:48.629Z,2.90
2022-08-24T17:59:25.566Z,3.40
2022-08-24T18:01:55.622Z,3.20
2022-08-24T18:04:25.889Z,3.65
2022-08-24T18:06:52.620Z,3.13
2022-08-24T18:09:28.970Z,2.92
2022-08-24T18:11:56.552Z,3.05
2022-08-24T18:14:26.744Z,3.42
2022-08-24T18:16:57.138Z,3.08
2022-08-24T18:19:25.179Z,3.08
2022-08-24T18:21:52.365Z,3.45
2022-08-24T18:24:19.692Z,3.33
2022-08-24T18:26:48.075Z,2.90
2022-08-24T18:29:21.522Z,3.42
2022-08-24T18:31:48.689Z,3.47
2022-08-24T18:34:21.259Z,3.60
2022-08-24T18:36:48.419Z,2.90
2022-08-24T18:39:15.423Z,3.38
2022-08-24T18:41:44.287Z,3.05
2022-08-24T18:44:21.518Z,3.70
2022-08-24T18:46:48.930Z,3.40
2022-08-24T18:49:17.326Z,4.15
2022-08-24T18:51:45.018Z,3.42
2022-08-24T18:54:19.087Z,3.55
2022-08-24T18:56:45.710Z,3.10
2022-08-24T18:59:14.577Z,4.00
2022-08-24T19:02:02.029Z,3.55
2022-08-24T19:04:33.312Z,3.00
2022-08-24T19:07:00.738Z,4.63
2022-08-24T19:09:32.011Z,3.88
2022-08-24T19:12:00.753Z,3.83
2022-08-24T19:14:27.412Z,3.70
2022-08-24T19:16:54.066Z,3.92
2022-08-24T19:19:22.240Z,4.10
2022-08-24T19:21:49.411Z,3.60
2022-08-24T19:24:18.677Z,3.50
2022-08-24T19:26:45.173Z,4.03
2022-08-24T19:29:12.267Z,3.42
2022-08-24T19:31:38.939Z,3.88
2022-08-24T19:34:06.092Z,4.32
2022-08-24T19:36:33.114Z,3.88
2022-08-24T19:39:00.211Z,4.20
2022-08-24T19:41:36.761Z,3.63
2022-08-24T19:44:27.158Z,3.90
2022-08-24T19:46:54.740Z,3.72
2022-08-24T19:49:21.689Z,4.22
2022-08-24T19:51:48.319Z,3.70
2022-08-24T19:54:14.832Z,4.65
2022-08-24T19:56:41.528Z,4.00
2022-08-24T19:59:20.907Z,3.75
2022-08-24T20:01:47.545Z,4.28
2022-08-24T20:04:14.175Z,3.95
2022-08-24T20:06:40.945Z,4.75
2022-08-24T20:09:19.570Z,4.07
2022-08-24T20:11:49.734Z,4.03
2022-08-24T20:14:16.282Z,3.92
2022-08-24T20:16:42.897Z,4.00
2022-08-24T20:19:11.286Z,4.18
2022-08-24T20:21:38.569Z,4.10
2022-08-24T20:24:06.396Z,4.10
2022-08-24T20:26:40.995Z,3.88
2022-08-24T20:29:08.362Z,3.92
2022-08-24T20:31:35.198Z,4.30
2022-08-24T20:34:02.422Z,5.32
2022-08-24T20:36:34.653Z,4.20
2022-08-24T20:39:02.899Z,4.40
2022-08-24T20:41:31.061Z,4.93
2022-08-24T20:43:57.744Z,5.10
2022-08-24T20:46:26.817Z,4.88
2022-08-24T20:48:55.573Z,5.32
2022-08-24T20:51:23.800Z,4.75
2022-08-24T20:53:50.579Z,5.10
2022-08-24T20:56:32.694Z,4.88
2022-08-24T20:59:02.525Z,4.22
2022-08-24T21:01:30.408Z,4.82
2022-08-24T21:04:00.243Z,4.25
2022-08-24T21:06:30.045Z,5.47
2022-08-24T21:08:57.063Z,5.53
2022-08-24T21:11:23.554Z,5.10
2022-08-24T21:13:50.056Z,4.88
2022-08-24T21:16:16.880Z,5.97
2022-08-24T21:18:43.693Z,5.47
2022-08-24T21:21:10.509Z,4.85
2022-08-24T21:23:37.028Z,5.43
2022-08-24T21:26:07.563Z,4.90
2022-08-24T21:28:35.693Z,5.10
2022-08-24T21:31:06.056Z,5.30
2022-08-24T21:33:52.161Z,5.20
2022-08-24T21:36:20.563Z,5.45
2022-08-24T21:38:47.409Z,5.30
2022-08-24T21:41:13.914Z,4.82
2022-08-24T21:43:40.367Z,5.13
2022-08-24T21:46:07.561Z,5.00
2022-08-24T21:48:34.078Z,5.50
2022-08-24T21:51:00.549Z,4.50
2022-08-24T21:53:28.691Z,4.22
2022-08-24T21:55:56.016Z,4.68
2022-08-24T21:58:24.079Z,4.43
2022-08-24T22:00:51.796Z,4.30
2022-08-24T22:03:19.444Z,4.22
2022-08-24T22:05:46.000Z,4.10
2022-08-24T22:08:12.778Z,5.15
2022-08-24T22:10:39.400Z,3.78
2022-08-24T22:13:06.998Z,4.07
2022-08-24T22:15:33.867Z,4.25
2022-08-24T22:18:01.261Z,3.80
2022-08-24T22:20:27.749Z,4.43
2022-08-24T22:22:54.235Z,4.00
2022-08-24T22:25:21.028Z,4.20
2022-08-24T22:27:47.831Z,3.85
2022-08-24T22:30:17.050Z,4.22
2022-08-24T22:32:47.096Z,4.57
2022-08-24T22:35:14.330Z,4.32
2022-08-24T22:37:41.876Z,4.65
2022-08-24T22:40:12.349Z,4.32
2022-08-24T22:42:39.537Z,3.97
2022-08-24T22:45:07.024Z,5.38
2022-08-24T22:47:33.756Z,5.22
2022-08-24T22:50:00.352Z,4.63
2022-08-24T22:52:26.929Z,4.30
2022-08-24T22:54:56.430Z,4.97
2022-08-24T22:57:23.714Z,4.47
2022-08-24T22:59:50.280Z,4.97
2022-08-24T23:02:19.582Z,4.50
2022-08-24T23:04:49.832Z,4.50
2022-08-24T23:07:17.946Z,4.95
2022-08-24T23:09:45.608Z,4.28
2022-08-24T23:12:16.029Z,4.32
2022-08-24T23:14:43.455Z,4.63
2022-08-24T23:17:10.566Z,4.78
2022-08-24T23:19:56.107Z,4.30
2022-08-24T23:24:49.211Z,4.20
2022-08-24T23:27:17.009Z,4.40
2022-08-24T23:29:44.626Z,4.72
2022-08-24T23:32:11.585Z,4.32
2022-08-24T23:34:38.226Z,4.47
2022-08-24T23:37:05.386Z,5.13
2022-08-24T23:39:31.931Z,4.65
2022-08-24T23:41:58.841Z,4.65
2022-08-24T23:44:28.455Z,4.43
2022-08-24T23:46:56.859Z,4.47
2022-08-24T23:49:24.510Z,4.68
2022-08-24T23:51:52.406Z,4.55
2022-08-24T23:54:19.722Z,4.28
2022-08-24T23:56:48.211Z,4.68
2022-08-24T23:59:19.173Z,4.55
